createdAt,value
2018-07-16T00:01:24.132Z,8.00
2018-07-16T00:03:52.143Z,8.03
2018-07-16T00:06:20.200Z,15.73
2018-07-16T00:08:48.329Z,8.83
2018-07-16T00:11:16.561Z,8.73
2018-07-16T00:13:44.698Z,9.00
2018-07-16T00:16:12.617Z,9.27
2018-07-16T00:18:40.617Z,12.30
2018-07-16T00:21:08.612Z,12.70
2018-07-16T00:23:36.558Z,9.67
2018-07-16T00:26:04.489Z,9.57
2018-07-16T00:28:32.563Z,10.10
2018-07-16T00:31:00.892Z,6.90
2018-07-16T00:33:29.081Z,8.63
2018-07-16T00:35:57.361Z,7.90
2018-07-16T00:38:25.761Z,7.53
2018-07-16T00:40:54.113Z,9.80
2018-07-16T00:43:22.380Z,8.40
2018-07-16T00:45:50.493Z,11.27
2018-07-16T00:48:18.488Z,7.57
2018-07-16T00:50:46.430Z,10.10
2018-07-16T00:53:14.384Z,6.93
2018-07-16T00:55:42.327Z,7.27
2018-07-16T00:58:10.273Z,7.50
2018-07-16T01:00:38.281Z,10.20
2018-07-16T01:03:06.253Z,7.40
2018-07-16T01:05:34.280Z,12.63
2018-07-16T01:08:02.481Z,8.70
2018-07-16T01:10:30.694Z,8.50
2018-07-16T01:12:59.042Z,8.77
2018-07-16T01:15:27.283Z,9.93
2018-07-16T01:17:55.737Z,7.40
2018-07-16T01:20:24.042Z,11.37
2018-07-16T01:22:51.953Z,7.00
2018-07-16T01:25:19.986Z,7.97
2018-07-16T01:27:48.165Z,8.47
2018-07-16T01:30:16.277Z,7.70
2018-07-16T01:32:44.231Z,6.40
2018-07-16T01:35:12.225Z,6.60
2018-07-16T01:37:40.199Z,9.30
2018-07-16T01:40:08.216Z,8.33
2018-07-16T01:42:36.233Z,6.03
2018-07-16T01:45:04.204Z,8.07
2018-07-16T01:47:32.281Z,6.90
2018-07-16T01:50:00.512Z,6.87
2018-07-16T01:52:28.640Z,6.57
2018-07-16T01:54:56.979Z,7.70
2018-07-16T01:57:25.176Z,6.43
2018-07-16T01:59:53.187Z,5.63
2018-07-16T02:02:21.140Z,7.80
2018-07-16T02:04:49.220Z,6.30
2018-07-16T02:07:17.368Z,6.77
2018-07-16T02:09:45.554Z,8.70
2018-07-16T02:12:13.595Z,6.33
2018-07-16T02:14:41.615Z,6.30
2018-07-16T02:17:09.592Z,8.17
2018-07-16T02:19:37.576Z,6.00
2018-07-16T02:22:05.533Z,10.23
2018-07-16T02:24:33.580Z,13.53
2018-07-16T02:27:01.695Z,7.37
2018-07-16T02:29:31.143Z,7.07
2018-07-16T02:31:59.530Z,7.20
2018-07-16T02:34:27.817Z,6.33
2018-07-16T02:36:56.219Z,7.63
2018-07-16T02:39:24.262Z,6.03
2018-07-16T02:41:52.249Z,9.57
2018-07-16T02:44:20.506Z,9.43
2018-07-16T02:46:48.737Z,7.00
2018-07-16T02:49:16.926Z,7.37
2018-07-16T02:51:45.150Z,9.93
2018-07-16T02:54:13.161Z,9.63
2018-07-16T02:56:41.168Z,8.83
2018-07-16T02:59:09.132Z,12.53
2018-07-16T03:01:37.092Z,6.37
2018-07-16T03:04:05.053Z,11.83
2018-07-16T03:06:33.113Z,9.07
2018-07-16T03:09:01.306Z,6.90
2018-07-16T03:11:29.659Z,11.07
2018-07-16T03:13:58.211Z,7.93
2018-07-16T03:16:26.497Z,11.00
2018-07-16T03:18:54.908Z,7.80
2018-07-16T03:21:22.906Z,6.10
2018-07-16T03:23:51.222Z,11.40
2018-07-16T03:26:19.210Z,6.30
2018-07-16T03:28:47.437Z,6.83
2018-07-16T03:31:15.744Z,6.23
2018-07-16T03:33:43.738Z,16.90
2018-07-16T03:36:11.804Z,8.00
2018-07-16T03:38:39.868Z,5.03
2018-07-16T03:41:07.841Z,7.43
2018-07-16T03:43:35.813Z,6.30
2018-07-16T03:46:03.922Z,6.67
2018-07-16T03:48:32.185Z,5.97
2018-07-16T03:51:00.456Z,5.53
2018-07-16T03:53:28.866Z,5.37
2018-07-16T03:55:57.940Z,4.93
2018-07-16T03:58:26.756Z,5.07
2018-07-16T04:00:55.101Z,8.30
2018-07-16T04:03:23.467Z,5.20
2018-07-16T04:05:51.582Z,8.70
2018-07-16T04:08:19.752Z,6.87
2018-07-16T04:10:47.872Z,7.80
2018-07-16T04:13:16.006Z,6.30
2018-07-16T04:15:44.040Z,9.33
2018-07-16T04:18:16.401Z,5.47
2018-07-16T04:20:44.513Z,4.67
2018-07-16T04:23:12.649Z,6.20
2018-07-16T04:25:41.663Z,11.57
2018-07-16T04:28:09.817Z,7.80
2018-07-16T04:30:37.854Z,4.97
2018-07-16T04:33:05.839Z,4.60
2018-07-16T04:35:33.961Z,7.83
2018-07-16T04:38:02.089Z,7.73
2018-07-16T04:40:30.274Z,5.63
2018-07-16T04:42:58.611Z,8.93
2018-07-16T04:45:27.367Z,4.10
2018-07-16T04:47:55.981Z,5.00
2018-07-16T04:50:24.206Z,5.10
2018-07-16T04:52:52.166Z,4.60
2018-07-16T04:55:20.419Z,5.33
2018-07-16T04:57:49.493Z,6.03
2018-07-16T05:00:17.806Z,9.17
2018-07-16T05:02:45.859Z,7.03
2018-07-16T05:05:13.972Z,7.47
2018-07-16T05:07:42.033Z,10.40
2018-07-16T05:10:10.000Z,8.87
2018-07-16T05:12:37.957Z,15.73
2018-07-16T05:15:05.944Z,10.17
2018-07-16T05:17:34.004Z,10.47
2018-07-16T05:20:08.528Z,13.00
2018-07-16T05:22:36.576Z,13.20
2018-07-16T05:25:05.642Z,12.57
2018-07-16T05:27:33.766Z,9.77
2018-07-16T05:30:01.869Z,14.33
2018-07-16T05:32:30.315Z,10.30
2018-07-16T05:34:58.505Z,12.90
2018-07-16T05:37:26.785Z,15.10
2018-07-16T05:39:55.294Z,11.60
2018-07-16T05:42:23.382Z,10.87
2018-07-16T05:44:51.599Z,15.40
2018-07-16T05:47:19.720Z,13.20
2018-07-16T05:49:47.733Z,12.10
2018-07-16T05:52:15.779Z,16.20
2018-07-16T05:54:43.857Z,16.33
2018-07-16T05:57:11.888Z,14.23
2018-07-16T05:59:40.102Z,14.67
2018-07-16T06:02:08.237Z,15.53
2018-07-16T06:04:36.559Z,17.93
2018-07-16T06:07:04.786Z,11.60
2018-07-16T06:09:33.185Z,20.10
2018-07-16T06:12:01.596Z,17.73
2018-07-16T06:14:30.192Z,19.10
2018-07-16T06:16:59.110Z,19.00
2018-07-16T06:19:28.130Z,18.53
2018-07-16T06:21:57.113Z,14.93
2018-07-16T06:24:25.812Z,9.70
2018-07-16T06:26:54.367Z,14.90
2018-07-16T06:29:22.877Z,11.57
2018-07-16T06:31:53.157Z,15.73
2018-07-16T06:34:21.607Z,10.93
2018-07-16T06:36:50.589Z,12.03
2018-07-16T06:39:19.037Z,10.60
2018-07-16T06:41:51.753Z,10.33
2018-07-16T06:44:20.326Z,14.73
2018-07-16T06:46:55.003Z,12.37
2018-07-16T06:49:23.434Z,10.73
2018-07-16T06:51:51.785Z,9.93
2018-07-16T06:54:20.461Z,10.50
2018-07-16T06:56:48.888Z,9.63
2018-07-16T06:59:17.501Z,14.37
2018-07-16T07:01:45.768Z,9.87
2018-07-16T07:04:14.030Z,9.67
2018-07-16T07:06:42.692Z,14.20
2018-07-16T07:09:10.836Z,9.70
2018-07-16T07:11:39.416Z,10.73
2018-07-16T07:14:12.152Z,12.57
2018-07-16T07:16:40.874Z,13.37
2018-07-16T07:19:09.457Z,15.73
2018-07-16T07:21:38.083Z,11.63
2018-07-16T07:24:07.960Z,10.57
2018-07-16T07:26:37.624Z,10.40
2018-07-16T07:29:07.576Z,10.40
2018-07-16T07:31:42.573Z,10.13
2018-07-16T07:34:13.167Z,12.33
2018-07-16T07:36:44.203Z,13.83
2018-07-16T07:39:20.389Z,11.70
2018-07-16T07:41:49.056Z,12.40
2018-07-16T07:44:18.080Z,11.07
2018-07-16T07:46:53.220Z,9.90
2018-07-16T07:49:26.161Z,8.90
2018-07-16T07:51:54.883Z,10.20
2018-07-16T07:54:25.085Z,9.40
2018-07-16T07:56:53.406Z,10.60
2018-07-16T07:59:22.199Z,7.87
2018-07-16T08:01:55.922Z,8.47
2018-07-16T08:04:24.489Z,8.50
2018-07-16T08:06:58.529Z,8.50
2018-07-16T08:09:26.943Z,10.00
2018-07-16T08:11:55.790Z,10.37
2018-07-16T08:14:24.020Z,8.47
2018-07-16T08:16:52.339Z,8.43
2018-07-16T08:19:20.691Z,6.23
2018-07-16T08:21:49.369Z,6.10
2018-07-16T08:24:19.211Z,5.73
2018-07-16T08:26:49.260Z,6.17
2018-07-16T08:29:17.456Z,6.87
2018-07-16T08:31:45.914Z,8.43
2018-07-16T08:34:19.050Z,9.50
2018-07-16T08:36:47.362Z,7.13
2018-07-16T08:39:16.706Z,7.93
2018-07-16T08:41:45.283Z,6.17
2018-07-16T08:44:13.661Z,7.40
2018-07-16T08:46:41.764Z,7.20
2018-07-16T08:49:10.166Z,5.60
2018-07-16T08:51:38.346Z,7.03
2018-07-16T08:54:06.483Z,4.60
2018-07-16T08:56:34.511Z,8.27
2018-07-16T08:59:03.704Z,6.20
2018-07-16T09:01:32.937Z,5.40
2018-07-16T09:04:01.831Z,12.50
2018-07-16T09:06:30.494Z,5.73
2018-07-16T09:08:58.838Z,5.37
2018-07-16T09:11:27.282Z,10.53
2018-07-16T09:13:56.008Z,4.80
2018-07-16T09:16:25.445Z,6.10
2018-07-16T09:18:53.544Z,5.33
2018-07-16T09:21:21.820Z,5.90
2018-07-16T09:23:50.090Z,5.57
2018-07-16T09:26:18.374Z,7.67
2018-07-16T09:28:46.655Z,9.23
2018-07-16T09:31:14.711Z,7.30
2018-07-16T09:33:43.060Z,5.90
2018-07-16T09:36:11.279Z,5.30
2018-07-16T09:38:39.455Z,7.60
2018-07-16T09:41:07.502Z,6.27
2018-07-16T09:43:35.576Z,5.93
2018-07-16T09:46:04.037Z,5.53
2018-07-16T09:48:33.262Z,6.63
2018-07-16T09:51:01.698Z,6.43
2018-07-16T09:53:30.779Z,5.50
2018-07-16T09:56:00.680Z,7.87
2018-07-16T09:58:29.419Z,5.83
2018-07-16T10:01:03.471Z,7.30
2018-07-16T10:03:36.730Z,5.73
2018-07-16T10:06:05.013Z,5.33
2018-07-16T10:08:33.593Z,4.77
2018-07-16T10:11:02.305Z,10.73
2018-07-16T10:13:31.012Z,4.90
2018-07-16T10:16:00.255Z,11.23
2018-07-16T10:18:28.928Z,3.70
2018-07-16T10:20:57.793Z,4.83
2018-07-16T10:23:26.791Z,3.40
2018-07-16T10:25:56.577Z,3.70
2018-07-16T10:28:25.078Z,10.83
2018-07-16T10:30:53.382Z,5.77
2018-07-16T10:33:21.701Z,10.20
2018-07-16T10:35:50.280Z,4.17
2018-07-16T10:38:19.650Z,3.53
2018-07-16T10:40:48.368Z,3.43
2018-07-16T10:43:16.782Z,3.30
2018-07-16T10:45:55.142Z,3.27
2018-07-16T10:48:23.472Z,3.73
2018-07-16T10:53:29.429Z,6.13
2018-07-16T10:55:58.494Z,3.90
2018-07-16T10:58:28.943Z,9.30
2018-07-16T11:00:57.634Z,6.80
2018-07-16T11:03:26.713Z,3.43
2018-07-16T11:08:29.172Z,5.03
2018-07-16T11:10:58.386Z,4.73
2018-07-16T11:13:27.540Z,3.77
2018-07-16T11:15:56.961Z,3.10
2018-07-16T11:18:26.553Z,3.23
2018-07-16T11:20:57.452Z,3.13
2018-07-16T11:23:26.261Z,3.77
2018-07-16T11:25:59.669Z,2.53
2018-07-16T11:31:07.183Z,3.03
2018-07-16T11:33:35.759Z,3.07
2018-07-16T11:36:04.909Z,2.40
2018-07-16T11:38:33.326Z,4.50
2018-07-16T11:41:01.918Z,5.27
2018-07-16T11:43:31.364Z,3.20
2018-07-16T11:46:00.008Z,5.50
2018-07-16T11:48:28.666Z,2.73
2018-07-16T11:50:57.637Z,3.53
2018-07-16T11:53:27.009Z,2.73
2018-07-16T11:55:56.212Z,4.00
2018-07-16T11:58:25.529Z,3.20
2018-07-16T12:00:53.948Z,8.30
2018-07-16T12:03:22.133Z,2.80
2018-07-16T12:05:50.380Z,4.13
2018-07-16T12:08:19.299Z,3.83
2018-07-16T12:10:47.788Z,3.27
2018-07-16T12:13:16.931Z,4.07
2018-07-16T12:15:45.378Z,3.50
2018-07-16T12:18:13.729Z,2.13
2018-07-16T12:20:43.789Z,2.73
2018-07-16T12:23:12.361Z,2.70
2018-07-16T12:28:22.282Z,2.90
2018-07-16T12:30:50.554Z,3.30
2018-07-16T12:33:19.019Z,3.20
2018-07-16T12:35:47.657Z,3.57
2018-07-16T12:38:16.073Z,3.70
2018-07-16T12:40:44.202Z,3.13
2018-07-16T12:43:12.485Z,1.90
2018-07-16T12:45:40.766Z,2.07
2018-07-16T12:48:09.117Z,2.70
2018-07-16T12:50:38.242Z,2.60
2018-07-16T12:55:52.166Z,5.17
2018-07-16T12:58:24.627Z,3.73
2018-07-16T13:00:56.979Z,6.27
2018-07-16T13:03:27.608Z,2.57
2018-07-16T13:05:56.567Z,4.10
2018-07-16T13:13:39.293Z,3.40
2018-07-16T13:16:12.214Z,2.63
2018-07-16T13:18:48.114Z,2.53
2018-07-16T13:21:20.860Z,3.10
2018-07-16T13:26:33.750Z,4.30
2018-07-16T13:29:02.133Z,3.23
2018-07-16T13:31:30.695Z,2.30
2018-07-16T13:34:00.210Z,2.40
2018-07-16T13:36:29.304Z,2.33
2018-07-16T13:38:58.509Z,3.30
2018-07-16T13:41:28.694Z,2.70
2018-07-16T13:43:58.006Z,3.30
2018-07-16T13:46:28.776Z,4.13
2018-07-16T13:48:57.673Z,5.17
2018-07-16T13:51:26.779Z,3.10
2018-07-16T13:53:55.626Z,2.87
2018-07-16T13:56:28.058Z,2.87
2018-07-16T13:58:57.224Z,6.03
2018-07-16T14:01:26.680Z,3.40
2018-07-16T14:03:55.292Z,3.10
2018-07-16T14:06:23.653Z,6.70
2018-07-16T14:08:53.053Z,2.90
2018-07-16T14:11:21.563Z,2.73
2018-07-16T14:13:49.861Z,5.73
2018-07-16T14:16:18.866Z,3.20
2018-07-16T14:18:47.187Z,4.13
2018-07-16T14:21:15.557Z,3.10
2018-07-16T14:23:44.055Z,4.40
2018-07-16T14:26:12.509Z,3.90
2018-07-16T14:28:40.767Z,4.03
2018-07-16T14:31:09.135Z,3.00
2018-07-16T14:33:37.544Z,2.93
2018-07-16T14:36:06.084Z,2.90
2018-07-16T14:38:34.441Z,5.20
2018-07-16T14:41:03.181Z,4.00
2018-07-16T14:43:31.810Z,13.77
2018-07-16T14:48:33.872Z,2.90
2018-07-16T14:51:03.067Z,3.57
2018-07-16T14:53:35.355Z,6.70
2018-07-16T14:56:03.927Z,3.90
2018-07-16T14:58:32.720Z,3.60
2018-07-16T15:01:01.353Z,3.20
2018-07-16T15:03:32.305Z,7.13
2018-07-16T15:06:01.102Z,2.97
2018-07-16T15:08:35.177Z,4.50
2018-07-16T15:11:03.578Z,3.53
2018-07-16T15:13:32.247Z,4.07
2018-07-16T15:16:01.412Z,7.63
2018-07-16T15:18:29.869Z,3.40
2018-07-16T15:20:59.031Z,4.47
2018-07-16T15:23:28.836Z,3.90
2018-07-16T15:25:57.505Z,5.73
2018-07-16T15:28:26.505Z,8.43
2018-07-16T15:30:55.643Z,4.30
2018-07-16T15:33:23.941Z,4.13
2018-07-16T15:35:52.269Z,4.33
2018-07-16T15:38:20.566Z,3.83
2018-07-16T15:40:49.838Z,3.73
2018-07-16T15:43:18.623Z,3.77
2018-07-16T15:45:48.209Z,4.90
2018-07-16T15:48:25.300Z,11.97
2018-07-16T15:50:54.536Z,6.43
2018-07-16T15:53:25.344Z,4.37
2018-07-16T15:55:54.307Z,5.90
2018-07-16T15:58:24.878Z,4.23
2018-07-16T16:00:53.187Z,3.30
2018-07-16T16:03:21.566Z,5.90
2018-07-16T16:05:49.764Z,5.63
2018-07-16T16:08:18.002Z,3.87
2018-07-16T16:10:46.364Z,5.40
2018-07-16T16:13:14.851Z,4.27
2018-07-16T16:15:43.063Z,4.60
2018-07-16T16:18:11.266Z,4.40
2018-07-16T16:20:39.535Z,5.00
2018-07-16T16:23:07.887Z,3.73
2018-07-16T16:25:36.217Z,5.07
2018-07-16T16:28:04.884Z,3.87
2018-07-16T16:30:34.271Z,5.23
2018-07-16T16:33:02.905Z,4.43
2018-07-16T16:35:35.753Z,10.27
2018-07-16T16:40:38.444Z,5.60
2018-07-16T16:43:06.749Z,5.37
2018-07-16T16:45:46.403Z,5.77
2018-07-16T16:48:14.942Z,3.80
2018-07-16T16:50:47.848Z,4.07
2018-07-16T16:53:16.363Z,5.50
2018-07-16T16:55:44.666Z,5.67
2018-07-16T16:58:17.366Z,3.90
2018-07-16T17:00:45.650Z,8.40
2018-07-16T17:03:14.215Z,4.00
2018-07-16T17:05:42.355Z,4.43
2018-07-16T17:08:10.767Z,6.47
2018-07-16T17:10:40.610Z,4.53
2018-07-16T17:13:10.578Z,3.40
2018-07-16T17:15:39.621Z,6.97
2018-07-16T17:18:07.832Z,4.10
2018-07-16T17:23:09.895Z,7.43
2018-07-16T17:25:38.106Z,6.90
2018-07-16T17:28:06.369Z,3.83
2018-07-16T17:30:34.484Z,7.37
2018-07-16T17:33:02.762Z,5.40
2018-07-16T17:35:30.987Z,4.17
2018-07-16T17:37:59.219Z,12.60
2018-07-16T17:40:27.547Z,14.57
2018-07-16T17:42:55.820Z,4.53
2018-07-16T17:45:27.212Z,12.30
2018-07-16T17:47:55.589Z,8.77
2018-07-16T17:50:23.917Z,22.17
2018-07-16T17:52:52.300Z,6.27
2018-07-16T17:55:21.110Z,6.53
2018-07-16T17:57:49.406Z,6.60
2018-07-16T18:00:18.262Z,4.30
2018-07-16T18:02:46.578Z,10.13
2018-07-16T18:05:14.671Z,5.10
2018-07-16T18:07:42.665Z,4.43
2018-07-16T18:10:11.805Z,6.17
2018-07-16T18:12:40.021Z,5.40
2018-07-16T18:15:08.510Z,6.30
2018-07-16T18:17:36.654Z,9.23
2018-07-16T18:20:05.399Z,9.67
2018-07-16T18:22:33.783Z,5.70
2018-07-16T18:25:02.249Z,10.33
2018-07-16T18:27:30.955Z,5.87
2018-07-16T18:29:59.328Z,6.77
2018-07-16T18:32:28.794Z,6.23
2018-07-16T18:34:56.994Z,5.73
2018-07-16T18:37:25.687Z,6.37
2018-07-16T18:39:53.954Z,9.97
2018-07-16T18:42:22.519Z,7.60
2018-07-16T18:44:50.523Z,7.60
2018-07-16T18:47:18.573Z,9.30
2018-07-16T18:49:46.659Z,17.20
2018-07-16T18:52:14.708Z,5.63
2018-07-16T18:54:42.744Z,6.47
2018-07-16T18:57:10.836Z,6.73
2018-07-16T18:59:39.010Z,6.20
2018-07-16T19:02:07.135Z,5.73
2018-07-16T19:04:35.221Z,8.50
2018-07-16T19:07:05.106Z,12.33
2018-07-16T19:09:33.996Z,8.70
2018-07-16T19:12:02.453Z,11.20
2018-07-16T19:14:30.847Z,11.73
2018-07-16T19:17:00.231Z,5.43
2018-07-16T19:19:28.637Z,7.53
2018-07-16T19:21:57.057Z,6.37
2018-07-16T19:24:25.362Z,6.70
2018-07-16T19:26:53.889Z,4.97
2018-07-16T19:29:22.273Z,5.87
2018-07-16T19:31:50.783Z,7.47
2018-07-16T19:34:18.805Z,6.20
2018-07-16T19:36:47.290Z,10.10
2018-07-16T19:39:15.295Z,5.23
2018-07-16T19:41:43.253Z,14.13
2018-07-16T19:44:11.449Z,5.37
2018-07-16T19:46:39.475Z,7.83
2018-07-16T19:49:07.459Z,7.73
2018-07-16T19:51:35.893Z,10.93
2018-07-16T19:54:04.012Z,8.77
2018-07-16T19:56:33.039Z,6.80
2018-07-16T19:59:01.192Z,9.10
2018-07-16T20:01:29.548Z,7.77
2018-07-16T20:03:58.038Z,6.30
2018-07-16T20:06:26.342Z,9.50
2018-07-16T20:08:55.146Z,15.03
2018-07-16T20:11:24.163Z,6.83
2018-07-16T20:13:52.394Z,8.50
2018-07-16T20:16:20.830Z,5.87
2018-07-16T20:18:50.402Z,8.90
2018-07-16T20:21:18.740Z,5.60
2018-07-16T20:23:46.824Z,11.13
2018-07-16T20:26:14.808Z,6.53
2018-07-16T20:28:42.904Z,7.00
2018-07-16T20:31:10.913Z,8.57
2018-07-16T20:33:39.097Z,7.80
2018-07-16T20:36:07.121Z,7.93
2018-07-16T20:38:35.112Z,6.50
2018-07-16T20:41:03.422Z,13.83
2018-07-16T20:43:31.626Z,9.97
2018-07-16T20:45:59.847Z,7.20
2018-07-16T20:48:28.688Z,7.30
2018-07-16T20:50:57.163Z,9.30
2018-07-16T20:53:25.352Z,9.10
2018-07-16T20:55:53.434Z,10.40
2018-07-16T20:58:21.461Z,6.07
2018-07-16T21:00:49.509Z,8.80
2018-07-16T21:03:17.496Z,7.97
2018-07-16T21:05:46.345Z,7.97
2018-07-16T21:08:14.336Z,9.37
2018-07-16T21:10:42.287Z,9.37
2018-07-16T21:13:10.238Z,14.77
2018-07-16T21:15:38.612Z,8.27
2018-07-16T21:18:06.989Z,17.03
2018-07-16T21:20:35.833Z,11.53
2018-07-16T21:23:04.131Z,8.50
2018-07-16T21:25:33.075Z,8.20
2018-07-16T21:28:01.719Z,10.27
2018-07-16T21:30:30.183Z,10.33
2018-07-16T21:32:59.396Z,11.47
2018-07-16T21:35:28.198Z,12.87
2018-07-16T21:37:56.989Z,11.03
2018-07-16T21:40:25.345Z,11.90
2018-07-16T21:42:53.326Z,11.83
2018-07-16T21:45:21.288Z,12.67
2018-07-16T21:47:49.615Z,9.40
2018-07-16T21:50:17.828Z,11.63
2018-07-16T21:52:46.574Z,12.03
2018-07-16T21:55:14.516Z,15.17
2018-07-16T21:57:42.487Z,9.37
2018-07-16T22:00:14.992Z,13.03
2018-07-16T22:02:43.160Z,27.93
2018-07-16T22:05:11.158Z,14.10
2018-07-16T22:07:39.568Z,18.77
2018-07-16T22:10:07.704Z,16.23
2018-07-16T22:12:35.795Z,12.50
2018-07-16T22:15:04.015Z,15.80
2018-07-16T22:17:32.285Z,11.20
2018-07-16T22:20:00.953Z,12.50
2018-07-16T22:22:29.311Z,12.00
2018-07-16T22:24:57.946Z,16.80
2018-07-16T22:27:26.179Z,9.47
2018-07-16T22:29:54.152Z,10.43
2018-07-16T22:32:22.190Z,13.30
2018-07-16T22:34:50.476Z,10.77
2018-07-16T22:37:18.685Z,12.07
2018-07-16T22:39:47.836Z,15.40
2018-07-16T22:42:16.058Z,11.13
2018-07-16T22:44:44.077Z,10.63
2018-07-16T22:47:12.081Z,16.27
2018-07-16T22:49:40.071Z,12.67
2018-07-16T22:52:08.094Z,13.23
2018-07-16T22:54:36.221Z,12.30
2018-07-16T22:57:04.848Z,10.43
2018-07-16T22:59:33.103Z,12.60
2018-07-16T23:02:01.251Z,11.23
2018-07-16T23:04:29.515Z,9.57
2018-07-16T23:06:57.818Z,10.30
2018-07-16T23:09:26.357Z,11.70
2018-07-16T23:11:54.612Z,12.37
2018-07-16T23:14:22.637Z,13.10
2018-07-16T23:16:50.716Z,10.93
2018-07-16T23:19:18.902Z,12.43
2018-07-16T23:21:47.388Z,11.70
2018-07-16T23:24:15.433Z,10.07
2018-07-16T23:26:43.402Z,10.80
2018-07-16T23:29:11.395Z,13.00
2018-07-16T23:31:39.375Z,15.17
2018-07-16T23:34:08.414Z,11.20
2018-07-16T23:36:36.449Z,11.50
2018-07-16T23:39:05.609Z,13.33
2018-07-16T23:41:33.915Z,14.07
2018-07-16T23:44:02.032Z,11.83
2018-07-16T23:46:30.870Z,13.40
2018-07-16T23:48:59.159Z,13.80
2018-07-16T23:51:27.594Z,14.30
2018-07-16T23:53:55.754Z,12.07
2018-07-16T23:56:23.785Z,12.97
2018-07-16T23:58:51.784Z,16.50
